Time;durP1;ratioP1;P1;durP2;ratioP2;P2;SDS_P1;SDS_P2;PMS_P1;PMS_P2;Temp;Humidity;BMP_temperature;BMP_pressure;BME280_temperature;BME280_humidity;BME280_pressure;Samples;Min_cycle;Max_cycle;Signal;HPM_P1;HPM_P2
2022/05/25 00:01:26;;;;;;;12.25;5.70;;;;;;;;;;5013530;28;20057;-63
2022/05/25 00:03:55;;;;;;;9.50;5.00;;;;;;;;;;5014026;28;20050;-63
2022/05/25 00:06:25;;;;;;;10.10;5.35;;;;;;;;;;5013843;28;20058;-63
2022/05/25 00:08:55;;;;;;;10.07;5.22;;;;;;;;;;5013915;28;20053;-62
2022/05/25 00:11:25;;;;;;;11.20;5.82;;;;;;;;;;5013829;28;20421;-62
2022/05/25 00:13:54;;;;;;;12.27;5.72;;;;;;;;;;5013652;28;20061;-62
2022/05/25 00:16:24;;;;;;;8.98;5.68;;;;;;;;;;5013671;28;20054;-62
2022/05/25 00:21:43;;;;;;;11.73;5.82;;;;;;;;;;4991849;28;20424;-62
2022/05/25 00:24:13;;;;;;;11.27;5.18;;;;;;;;;;4993006;28;20047;-62
2022/05/25 00:26:42;;;;;;;8.73;5.63;;;;;;;;;;4993668;28;20134;-62
2022/05/25 00:29:14;;;;;;;13.93;5.53;;;;;;;;;;4993897;28;20078;-62
2022/05/25 00:31:44;;;;;;;10.35;5.47;;;;;;;;;;4994073;28;20055;-63
2022/05/25 00:34:14;;;;;;;8.45;4.68;;;;;;;;;;4993613;28;20086;-62
2022/05/25 00:36:45;;;;;;;14.35;5.30;;;;;;;;;;4993958;28;20050;-62
2022/05/25 00:39:16;;;;;;;9.23;5.50;;;;;;;;;;4992775;28;20081;-62
2022/05/25 00:41:45;;;;;;;9.15;5.35;;;;;;;;;;4993849;28;20420;-62
2022/05/25 00:44:14;;;;;;;7.75;5.03;;;;;;;;;;4994009;28;20054;-62
2022/05/25 00:46:45;;;;;;;7.18;4.55;;;;;;;;;;4993760;28;20104;-62
2022/05/25 00:49:18;;;;;;;9.48;4.93;;;;;;;;;;4993814;28;20061;-62
2022/05/25 00:51:51;;;;;;;10.50;5.50;;;;;;;;;;4993383;28;20120;-62
2022/05/25 00:54:37;;;;;;;8.45;5.05;;;;;;;;;;4993918;28;20046;-62
2022/05/25 00:57:13;;;;;;;6.60;5.05;;;;;;;;;;4992553;28;20097;-62
2022/05/25 00:59:58;;;;;;;10.25;5.72;;;;;;;;;;4993590;28;20054;-62
2022/05/25 01:02:29;;;;;;;9.95;5.95;;;;;;;;;;4993439;28;20440;-62
2022/05/25 01:04:58;;;;;;;11.35;5.90;;;;;;;;;;4994654;28;20047;-61
2022/05/25 01:07:54;;;;;;;15.32;5.95;;;;;;;;;;4996943;28;20046;-63
2022/05/25 01:10:41;;;;;;;13.35;8.35;;;;;;;;;;4997349;28;20074;-63
2022/05/25 01:13:39;;;;;;;12.50;6.60;;;;;;;;;;4996947;28;20412;-60
2022/05/25 01:16:37;;;;;;;16.77;6.80;;;;;;;;;;4993302;28;20053;-63
2022/05/25 01:19:24;;;;;;;12.82;8.70;;;;;;;;;;4996527;28;20425;-63
2022/05/25 01:22:04;;;;;;;15.20;8.57;;;;;;;;;;4995559;28;20536;-63
2022/05/25 01:25:00;;;;;;;20.85;9.30;;;;;;;;;;4996752;28;20050;-63
2022/05/25 01:27:38;;;;;;;;;;;;;;;;;;4997413;28;20104;-61
2022/05/25 01:30:37;;;;;;;16.20;8.98;;;;;;;;;;4997078;28;19976;-63
2022/05/25 01:33:18;;;;;;;12.75;8.27;;;;;;;;;;4977225;28;20391;-63
2022/05/25 01:36:18;;;;;;;15.93;8.60;;;;;;;;;;4996447;28;20050;-64
2022/05/25 01:39:01;;;;;;;22.55;9.88;;;;;;;;;;4946295;28;20054;-64
2022/05/25 01:41:38;;;;;;;15.55;9.88;;;;;;;;;;4996438;28;20055;-64
2022/05/25 01:44:17;;;;;;;17.88;10.38;;;;;;;;;;4995725;28;20505;-64
2022/05/25 01:46:49;;;;;;;20.25;8.73;;;;;;;;;;4979392;28;20057;-64
2022/05/25 01:49:21;;;;;;;17.25;9.38;;;;;;;;;;4995915;28;20387;-64
2022/05/25 01:51:55;;;;;;;14.73;9.80;;;;;;;;;;4995127;28;20076;-64
2022/05/25 01:54:29;;;;;;;13.50;8.63;;;;;;;;;;4979402;28;20556;-64
2022/05/25 01:57:00;;;;;;;13.50;8.50;;;;;;;;;;4995407;28;20061;-65
2022/05/25 01:59:28;;;;;;;15.38;8.40;;;;;;;;;;4979042;28;20050;-64
2022/05/25 02:05:05;;;;;;;18.73;8.82;;;;;;;;;;4980564;28;20054;-64
2022/05/25 02:07:45;;;;;;;14.40;8.00;;;;;;;;;;4995356;28;20046;-64
2022/05/25 02:10:21;;;;;;;10.50;7.43;;;;;;;;;;4996163;28;20141;-63
2022/05/25 02:13:29;;;;;;;13.80;9.23;;;;;;;;;;4995262;28;20497;-64
2022/05/25 02:16:11;;;;;;;10.18;7.43;;;;;;;;;;4973901;28;20058;-64
2022/05/25 02:19:05;;;;;;;14.65;7.88;;;;;;;;;;4979987;28;20104;-64
2022/05/25 02:21:57;;;;;;;13.25;7.93;;;;;;;;;;4988569;28;20066;-64
2022/05/25 02:24:29;;;;;;;11.45;8.73;;;;;;;;;;4978779;28;20422;-64
2022/05/25 02:27:04;;;;;;;20.88;11.68;;;;;;;;;;4994451;28;20074;-63
2022/05/25 02:29:39;;;;;;;15.77;11.57;;;;;;;;;;4978805;28;20058;-62
2022/05/25 02:32:45;;;;;;;19.77;12.35;;;;;;;;;;4978326;28;20480;-63
2022/05/25 02:35:22;;;;;;;24.23;10.63;;;;;;;;;;4992115;28;20053;-63
2022/05/25 02:37:52;;;;;;;16.25;10.07;;;;;;;;;;4995175;28;20050;-62
2022/05/25 02:40:22;;;;;;;20.10;12.25;;;;;;;;;;4995345;28;20046;-62
2022/05/25 02:42:51;;;;;;;14.02;10.35;;;;;;;;;;4995399;28;20050;-63
2022/05/25 02:45:22;;;;;;;19.23;11.73;;;;;;;;;;4995462;28;20482;-63
2022/05/25 02:47:52;;;;;;;12.98;9.50;;;;;;;;;;4995189;28;20497;-63
2022/05/25 02:50:21;;;;;;;17.70;9.48;;;;;;;;;;4995452;28;20129;-62
2022/05/25 02:52:52;;;;;;;16.02;9.57;;;;;;;;;;4995544;28;20367;-63
2022/05/25 02:55:22;;;;;;;13.48;8.15;;;;;;;;;;4994899;28;20473;-62
2022/05/25 02:57:52;;;;;;;15.93;9.77;;;;;;;;;;4995379;28;20054;-63
2022/05/25 03:00:22;;;;;;;13.18;8.75;;;;;;;;;;4994930;28;20057;-63
2022/05/25 03:02:53;;;;;;;13.65;8.82;;;;;;;;;;4995375;28;20535;-62
2022/05/25 03:05:23;;;;;;;17.10;8.13;;;;;;;;;;4994418;28;20050;-63
2022/05/25 03:07:53;;;;;;;24.13;9.93;;;;;;;;;;4995280;28;20096;-63
2022/05/25 03:10:23;;;;;;;12.35;9.07;;;;;;;;;;4994852;28;20467;-62
2022/05/25 03:12:55;;;;;;;11.90;8.05;;;;;;;;;;4995369;28;20465;-62
2022/05/25 03:15:25;;;;;;;13.50;8.50;;;;;;;;;;4994917;28;20137;-62
2022/05/25 03:17:54;;;;;;;12.68;8.45;;;;;;;;;;4994590;28;20054;-63
2022/05/25 03:20:23;;;;;;;19.50;10.20;;;;;;;;;;4995080;28;20085;-63
2022/05/25 03:22:54;;;;;;;11.43;7.30;;;;;;;;;;4994081;28;20141;-63
2022/05/25 03:25:23;;;;;;;14.35;7.97;;;;;;;;;;4995214;28;20146;-63
2022/05/25 03:27:53;;;;;;;11.65;7.88;;;;;;;;;;4993863;28;20424;-63
2022/05/25 03:30:25;;;;;;;14.95;8.73;;;;;;;;;;4994898;28;20129;-63
2022/05/25 03:32:54;;;;;;;17.02;9.50;;;;;;;;;;4994275;28;20060;-63
2022/05/25 03:35:25;;;;;;;17.50;8.80;;;;;;;;;;4994929;28;20053;-62
2022/05/25 03:37:54;;;;;;;17.75;9.13;;;;;;;;;;4994502;28;20051;-62
2022/05/25 03:40:22;;;;;;;11.65;8.00;;;;;;;;;;4994022;28;20137;-63
2022/05/25 03:42:51;;;;;;;21.30;8.57;;;;;;;;;;4994776;28;20417;-63
2022/05/25 03:45:19;;;;;;;12.30;7.95;;;;;;;;;;4994142;28;20460;-63
2022/05/25 03:47:50;;;;;;;14.52;6.82;;;;;;;;;;4994562;28;20098;-62
2022/05/25 03:50:19;;;;;;;10.60;6.72;;;;;;;;;;4993060;28;20471;-62
2022/05/25 03:52:49;;;;;;;10.77;6.85;;;;;;;;;;4994731;28;20104;-61
2022/05/25 03:55:19;;;;;;;10.35;7.32;;;;;;;;;;4993896;28;20133;-62
2022/05/25 03:57:48;;;;;;;12.23;7.45;;;;;;;;;;4994361;28;20133;-61
2022/05/25 04:00:20;;;;;;;10.88;6.10;;;;;;;;;;4994472;28;20057;-61
2022/05/25 04:02:49;;;;;;;19.52;8.55;;;;;;;;;;4994095;28;20470;-61
2022/05/25 04:05:18;;;;;;;18.35;9.23;;;;;;;;;;4994400;28;20133;-61
2022/05/25 04:07:47;;;;;;;19.63;9.70;;;;;;;;;;4993682;28;20048;-63
2022/05/25 04:10:19;;;;;;;20.00;8.93;;;;;;;;;;4994011;28;20054;-63
2022/05/25 04:12:48;;;;;;;17.15;9.43;;;;;;;;;;4993899;28;20553;-63
2022/05/25 04:15:21;;;;;;;17.98;9.07;;;;;;;;;;4994383;28;20090;-63
2022/05/25 04:17:50;;;;;;;24.23;9.32;;;;;;;;;;4993669;28;20089;-63
2022/05/25 04:20:21;;;;;;;19.17;9.40;;;;;;;;;;4993958;28;20501;-63
2022/05/25 04:22:50;;;;;;;16.73;9.82;;;;;;;;;;4993415;28;20176;-63
2022/05/25 04:25:21;;;;;;;17.83;9.65;;;;;;;;;;4993991;28;20096;-63
2022/05/25 04:27:53;;;;;;;23.58;10.50;;;;;;;;;;4994130;28;20129;-62
2022/05/25 04:30:27;;;;;;;25.33;12.68;;;;;;;;;;4993795;28;20054;-62
2022/05/25 04:32:57;;;;;;;34.25;13.80;;;;;;;;;;4994635;28;20125;-63
2022/05/25 04:35:27;;;;;;;20.48;12.98;;;;;;;;;;4993295;28;20053;-63
2022/05/25 04:37:58;;;;;;;21.65;13.23;;;;;;;;;;4993895;28;20054;-63
2022/05/25 04:40:29;;;;;;;28.42;15.30;;;;;;;;;;4995485;28;20062;-63
2022/05/25 04:43:00;;;;;;;27.63;13.60;;;;;;;;;;4997792;28;20104;-63
2022/05/25 04:45:28;;;;;;;22.05;13.57;;;;;;;;;;4997350;28;20461;-63
2022/05/25 04:47:59;;;;;;;19.15;13.02;;;;;;;;;;4997825;28;20042;-63
2022/05/25 04:50:32;;;;;;;23.52;14.80;;;;;;;;;;4997815;28;20147;-63
2022/05/25 04:53:02;;;;;;;15.00;12.10;;;;;;;;;;4997030;28;20054;-66
2022/05/25 04:58:26;;;;;;;20.13;12.10;;;;;;;;;;4997118;28;20173;-66
2022/05/25 05:00:55;;;;;;;15.95;11.57;;;;;;;;;;4997738;28;20046;-63
2022/05/25 05:03:26;;;;;;;18.25;11.20;;;;;;;;;;4997414;28;20184;-60
2022/05/25 05:05:57;;;;;;;27.50;12.32;;;;;;;;;;4996935;28;20050;-60
2022/05/25 05:08:26;;;;;;;18.20;9.75;;;;;;;;;;4996502;28;20121;-60
2022/05/25 05:10:56;;;;;;;16.58;9.57;;;;;;;;;;4996686;28;20050;-60
2022/05/25 05:13:24;;;;;;;20.40;8.93;;;;;;;;;;4996393;28;20149;-64
2022/05/25 05:15:54;;;;;;;20.77;8.68;;;;;;;;;;4997163;28;20046;-64
2022/05/25 05:18:24;;;;;;;14.80;9.50;;;;;;;;;;4997501;28;20509;-67
2022/05/25 05:21:07;;;;;;;17.27;8.73;;;;;;;;;;4977002;28;20100;-62
2022/05/25 05:23:41;;;;;;;20.90;8.52;;;;;;;;;;4994002;28;20450;-60
2022/05/25 05:26:10;;;;;;;15.82;8.45;;;;;;;;;;4981140;28;20524;-60
2022/05/25 05:28:41;;;;;;;25.88;9.50;;;;;;;;;;4996972;28;20505;-60
2022/05/25 05:31:11;;;;;;;17.98;7.63;;;;;;;;;;4996550;28;20054;-59
2022/05/25 05:33:41;;;;;;;13.30;7.30;;;;;;;;;;4996833;28;20050;-63
2022/05/25 05:36:15;;;;;;;18.70;8.85;;;;;;;;;;4995540;28;20077;-63
2022/05/25 05:39:05;;;;;;;15.52;7.55;;;;;;;;;;4996331;28;20418;-65
2022/05/25 05:41:56;;;;;;;15.32;9.30;;;;;;;;;;4994083;28;20046;-61
2022/05/25 05:44:28;;;;;;;13.43;9.73;;;;;;;;;;4977364;28;20137;-63
2022/05/25 05:47:06;;;;;;;15.57;9.50;;;;;;;;;;4992815;28;20046;-63
2022/05/25 05:50:14;;;;;;;15.18;9.93;;;;;;;;;;4994331;28;20059;-63
2022/05/25 05:52:43;;;;;;;14.80;9.02;;;;;;;;;;4993860;28;20054;-63
2022/05/25 05:55:13;;;;;;;17.90;9.60;;;;;;;;;;4995008;28;20100;-63
2022/05/25 05:57:44;;;;;;;13.18;9.68;;;;;;;;;;4995107;28;20055;-63
2022/05/25 06:00:15;;;;;;;11.32;9.02;;;;;;;;;;4993797;28;20054;-63
2022/05/25 06:02:44;;;;;;;18.58;11.73;;;;;;;;;;4994427;28;20050;-63
2022/05/25 06:05:14;;;;;;;18.13;10.60;;;;;;;;;;4994336;28;20141;-63
2022/05/25 06:07:43;;;;;;;20.02;9.40;;;;;;;;;;4994776;28;20068;-62
2022/05/25 06:10:13;;;;;;;16.38;9.65;;;;;;;;;;4994497;28;20449;-62
2022/05/25 06:12:47;;;;;;;12.75;9.27;;;;;;;;;;4994740;28;20050;-62
2022/05/25 06:20:50;;;;;;;18.73;9.60;;;;;;;;;;4995370;28;20755;-62
2022/05/25 06:23:21;;;;;;;15.15;9.07;;;;;;;;;;4996127;28;20135;-62
2022/05/25 06:25:50;;;;;;;18.45;9.85;;;;;;;;;;4995700;28;20074;-62
2022/05/25 06:28:19;;;;;;;21.75;10.60;;;;;;;;;;4995723;28;20068;-62
2022/05/25 06:30:49;;;;;;;20.00;11.43;;;;;;;;;;4996036;28;20054;-62
2022/05/25 06:33:19;;;;;;;27.67;10.55;;;;;;;;;;4995513;28;20507;-62
2022/05/25 06:35:49;;;;;;;21.17;10.38;;;;;;;;;;4995806;28;20070;-62
2022/05/25 06:38:19;;;;;;;19.00;9.98;;;;;;;;;;4995313;28;20049;-62
2022/05/25 06:40:49;;;;;;;14.18;11.15;;;;;;;;;;4995560;28;20053;-62
2022/05/25 06:43:18;;;;;;;20.98;10.45;;;;;;;;;;4995207;28;20077;-62
2022/05/25 06:45:48;;;;;;;24.65;12.65;;;;;;;;;;4995588;28;20188;-62
2022/05/25 06:48:18;;;;;;;20.27;11.43;;;;;;;;;;4992891;28;20062;-61
2022/05/25 06:50:51;;;;;;;19.65;11.75;;;;;;;;;;4991702;28;20507;-62
2022/05/25 06:53:28;;;;;;;16.67;11.65;;;;;;;;;;4981750;28;20462;-61
2022/05/25 06:56:06;;;;;;;12.80;11.40;;;;;;;;;;4972576;28;20085;-61
2022/05/25 06:58:47;;;;;;;19.25;12.13;;;;;;;;;;4973327;28;20059;-61
2022/05/25 07:01:26;;;;;;;15.20;11.38;;;;;;;;;;4977290;28;20493;-71
2022/05/25 07:03:59;;;;;;;21.85;12.45;;;;;;;;;;4990994;28;20445;-71
2022/05/25 07:06:38;;;;;;;12.13;10.40;;;;;;;;;;4991913;28;20078;-70
2022/05/25 07:09:19;;;;;;;20.60;10.90;;;;;;;;;;4982299;28;20169;-72
2022/05/25 07:11:59;;;;;;;20.73;11.18;;;;;;;;;;4991470;28;20054;-71
2022/05/25 07:14:31;;;;;;;16.08;11.38;;;;;;;;;;4991974;28;20073;-70
2022/05/25 07:17:03;;;;;;;22.67;10.98;;;;;;;;;;4991994;28;20054;-71
2022/05/25 07:19:40;;;;;;;15.48;11.15;;;;;;;;;;4992360;28;20066;-71
2022/05/25 07:22:18;;;;;;;13.10;10.80;;;;;;;;;;4989689;28;20064;-70
2022/05/25 07:24:58;;;;;;;18.02;11.02;;;;;;;;;;4971603;28;20062;-70
2022/05/25 07:27:39;;;;;;;22.55;11.02;;;;;;;;;;4981719;28;20050;-71
2022/05/25 07:30:13;;;;;;;16.05;12.43;;;;;;;;;;4988333;28;20044;-71
2022/05/25 07:32:51;;;;;;;24.83;13.18;;;;;;;;;;4990928;28;20050;-70
2022/05/25 07:35:30;;;;;;;20.55;10.95;;;;;;;;;;4990323;28;20567;-70
2022/05/25 07:38:08;;;;;;;13.05;11.10;;;;;;;;;;4974721;28;20054;-71
2022/05/25 07:40:45;;;;;;;20.58;11.07;;;;;;;;;;4990990;28;20046;-70
2022/05/25 07:43:28;;;;;;;14.07;11.52;;;;;;;;;;4991375;28;20042;-71
2022/05/25 07:46:07;;;;;;;29.88;11.63;;;;;;;;;;4973728;28;20058;-70
2022/05/25 07:48:44;;;;;;;25.25;13.35;;;;;;;;;;4992101;28;20073;-70
2022/05/25 07:51:29;;;;;;;14.90;10.95;;;;;;;;;;4991878;28;20074;-71
2022/05/25 07:54:04;;;;;;;15.57;10.75;;;;;;;;;;4977672;28;20110;-72
2022/05/25 07:56:37;;;;;;;12.77;10.60;;;;;;;;;;4958056;28;20065;-72
2022/05/25 07:59:07;;;;;;;15.32;9.95;;;;;;;;;;4974951;28;20060;-68
2022/05/25 08:07:22;;;;;;;14.60;9.20;;;;;;;;;;4973981;28;20532;-67
2022/05/25 08:09:54;;;;;;;15.27;8.90;;;;;;;;;;4974878;28;20051;-68
2022/05/25 08:12:24;;;;;;;13.63;9.25;;;;;;;;;;4961905;28;20077;-67
2022/05/25 08:14:55;;;;;;;26.80;8.93;;;;;;;;;;4992737;28;20157;-68
2022/05/25 08:17:24;;;;;;;15.23;8.70;;;;;;;;;;4992875;28;20141;-68
2022/05/25 08:19:54;;;;;;;15.15;8.35;;;;;;;;;;4975108;28;20561;-68
2022/05/25 08:22:25;;;;;;;11.95;8.63;;;;;;;;;;4991177;28;20517;-68
2022/05/25 08:24:56;;;;;;;16.95;8.63;;;;;;;;;;4974356;28;20059;-67
2022/05/25 08:27:25;;;;;;;14.18;8.30;;;;;;;;;;4992019;28;20062;-67
2022/05/25 08:29:55;;;;;;;13.20;7.82;;;;;;;;;;4991512;28;20050;-67
2022/05/25 08:32:24;;;;;;;10.20;8.38;;;;;;;;;;4991794;28;20073;-67
2022/05/25 08:34:54;;;;;;;7.90;7.00;;;;;;;;;;4992275;28;20189;-68
2022/05/25 08:37:25;;;;;;;15.82;7.55;;;;;;;;;;4991832;28;20047;-68
2022/05/25 08:39:55;;;;;;;15.15;6.55;;;;;;;;;;4991854;28;20066;-68
2022/05/25 08:42:26;;;;;;;7.97;6.35;;;;;;;;;;4992140;28;20539;-68
2022/05/25 08:44:55;;;;;;;9.77;6.03;;;;;;;;;;4993514;28;20050;-68
2022/05/25 08:47:24;;;;;;;11.68;5.22;;;;;;;;;;4976052;28;20054;-68
2022/05/25 08:49:55;;;;;;;11.73;5.90;;;;;;;;;;4991222;28;20196;-68
2022/05/25 08:52:31;;;;;;;11.85;6.10;;;;;;;;;;4992818;28;20050;-68
2022/05/25 08:55:04;;;;;;;19.45;7.03;;;;;;;;;;4975761;28;20125;-69
2022/05/25 08:57:40;;;;;;;8.85;5.90;;;;;;;;;;4993819;28;20042;-71
2022/05/25 09:00:14;;;;;;;8.50;3.58;;;;;;;;;;4976809;28;20077;-66
2022/05/25 09:02:57;;;;;;;10.75;4.38;;;;;;;;;;4993714;28;20050;-69
2022/05/25 09:05:36;;;;;;;14.20;4.25;;;;;;;;;;4992312;28;20050;-69
2022/05/25 09:08:23;;;;;;;10.50;4.45;;;;;;;;;;4975953;28;20494;-69
2022/05/25 09:11:18;;;;;;;9.90;4.20;;;;;;;;;;4993563;28;20042;-69
2022/05/25 09:14:02;;;;;;;9.18;3.40;;;;;;;;;;4991526;28;20054;-70
2022/05/25 09:16:35;;;;;;;19.85;5.28;;;;;;;;;;4993290;28;20046;-69
2022/05/25 09:19:09;;;;;;;12.05;3.60;;;;;;;;;;4976021;28;20053;-70
2022/05/25 09:21:44;;;;;;;10.93;4.05;;;;;;;;;;4992726;28;20125;-70
2022/05/25 09:24:33;;;;;;;6.88;4.38;;;;;;;;;;4959224;28;20109;-69
2022/05/25 09:27:02;;;;;;;7.65;3.90;;;;;;;;;;4974042;28;20418;-70
2022/05/25 09:29:33;;;;;;;11.65;4.28;;;;;;;;;;4960742;28;20494;-69
2022/05/25 09:32:35;;;;;;;9.90;4.63;;;;;;;;;;4977301;28;20062;-68
2022/05/25 09:35:13;;;;;;;6.35;3.58;;;;;;;;;;4913732;29;20067;-67
2022/05/25 09:38:09;;;;;;;17.30;4.43;;;;;;;;;;4994630;28;20096;-68
2022/05/25 09:40:38;;;;;;;;;;;;;;;;;;4996809;28;20062;-69
2022/05/25 09:43:12;;;;;;;5.70;3.47;;;;;;;;;;4995550;28;20331;-69
2022/05/25 09:45:48;;;;;;;10.63;5.38;;;;;;;;;;4996288;28;20386;-68
2022/05/25 09:48:31;;;;;;;5.82;3.65;;;;;;;;;;4979232;28;20058;-69
2022/05/25 09:51:17;;;;;;;7.43;3.42;;;;;;;;;;4995728;28;20058;-69
2022/05/25 09:54:19;;;;;;;10.77;4.63;;;;;;;;;;4982576;28;20051;-69
2022/05/25 09:56:55;;;;;;;16.13;3.75;;;;;;;;;;4995964;28;20046;-69
2022/05/25 10:00:06;;;;;;;10.88;4.05;;;;;;;;;;4996499;28;20062;-69
2022/05/25 10:02:43;;;;;;;9.60;3.33;;;;;;;;;;4958062;28;20058;-69
2022/05/25 10:05:54;;;;;;;10.73;3.40;;;;;;;;;;4996069;28;20046;-68
2022/05/25 10:08:39;;;;;;;6.93;3.42;;;;;;;;;;4995949;28;20054;-68
2022/05/25 10:11:29;;;;;;;7.05;4.07;;;;;;;;;;4995687;28;20050;-68
2022/05/25 10:14:31;;;;;;;10.43;2.70;;;;;;;;;;4996286;28;20089;-69
2022/05/25 10:17:07;;;;;;;6.22;3.40;;;;;;;;;;4995914;28;20050;-69
2022/05/25 10:19:51;;;;;;;7.63;3.78;;;;;;;;;;4996276;28;20081;-69
2022/05/25 10:22:44;;;;;;;9.07;3.50;;;;;;;;;;4993451;28;20058;-68
2022/05/25 10:25:26;;;;;;;7.15;3.63;;;;;;;;;;4974791;28;20078;-68
2022/05/25 10:27:58;;;;;;;9.07;3.05;;;;;;;;;;4975533;28;20055;-67
2022/05/25 10:36:47;;;;;;;5.47;3.13;;;;;;;;;;4972678;28;20050;-65
2022/05/25 10:39:24;;;;;;;8.80;2.97;;;;;;;;;;4971701;28;20050;-66
2022/05/25 10:42:01;;;;;;;9.48;3.15;;;;;;;;;;4971195;28;20069;-65
2022/05/25 10:44:51;;;;;;;8.68;3.40;;;;;;;;;;4972260;28;20055;-63
2022/05/25 10:50:18;;;;;;;7.13;2.95;;;;;;;;;;4965647;28;20141;-63
2022/05/25 10:53:02;;;;;;;9.10;2.80;;;;;;;;;;4972463;28;20104;-63
2022/05/25 10:55:54;;;;;;;8.85;2.97;;;;;;;;;;4972066;28;20055;-65
2022/05/25 10:58:52;;;;;;;8.90;2.70;;;;;;;;;;4945589;28;20438;-63
2022/05/25 11:01:38;;;;;;;9.90;2.95;;;;;;;;;;4971982;28;20078;-63
2022/05/25 11:04:49;;;;;;;9.82;2.60;;;;;;;;;;4972719;28;20117;-63
2022/05/25 11:07:41;;;;;;;6.65;2.13;;;;;;;;;;4987949;28;20057;-62
2022/05/25 11:10:32;;;;;;;10.85;3.42;;;;;;;;;;4987783;28;20061;-62
2022/05/25 11:13:18;;;;;;;10.32;3.72;;;;;;;;;;4988275;28;20081;-62
2022/05/25 11:15:58;;;;;;;7.13;2.63;;;;;;;;;;4989091;28;20166;-62
2022/05/25 11:18:36;;;;;;;8.45;2.60;;;;;;;;;;4989026;28;20058;-62
2022/05/25 11:21:29;;;;;;;10.30;2.80;;;;;;;;;;4989056;28;20053;-62
2022/05/25 11:24:07;;;;;;;8.70;3.92;;;;;;;;;;4989589;28;20604;-62
2022/05/25 11:26:48;;;;;;;11.45;3.40;;;;;;;;;;4990810;28;20133;-62
2022/05/25 11:29:45;;;;;;;12.75;3.22;;;;;;;;;;4989070;28;20516;-62
2022/05/25 11:32:45;;;;;;;9.63;2.60;;;;;;;;;;4987806;28;20508;-62
2022/05/25 11:35:46;;;;;;;8.52;3.20;;;;;;;;;;4989659;28;20054;-63
2022/05/25 11:38:41;;;;;;;6.88;2.92;;;;;;;;;;4987183;28;20072;-62
2022/05/25 11:41:32;;;;;;;4.90;2.63;;;;;;;;;;4990816;28;20042;-62
2022/05/25 11:44:42;;;;;;;15.80;4.15;;;;;;;;;;4991387;28;20121;-64
2022/05/25 11:47:28;;;;;;;11.48;3.28;;;;;;;;;;4931538;29;20048;-66
2022/05/25 11:50:11;;;;;;;5.80;2.83;;;;;;;;;;4931707;29;20085;-64
2022/05/25 11:53:02;;;;;;;7.93;3.13;;;;;;;;;;4976965;28;20058;-66
2022/05/25 11:56:14;;;;;;;6.28;2.67;;;;;;;;;;4992043;28;20052;-70
2022/05/25 11:59:01;;;;;;;13.98;3.92;;;;;;;;;;4991671;28;20058;-72
2022/05/25 12:01:38;;;;;;;12.18;3.55;;;;;;;;;;4992460;28;20050;-72
2022/05/25 12:04:32;;;;;;;11.45;4.80;;;;;;;;;;4992454;28;20058;-73
2022/05/25 12:07:06;;;;;;;9.48;3.53;;;;;;;;;;4992733;28;20078;-78
2022/05/25 12:09:43;;;;;;;7.20;3.47;;;;;;;;;;4990605;28;20078;-74
2022/05/25 12:12:30;;;;;;;9.50;2.75;;;;;;;;;;4984713;28;20050;-75
2022/05/25 12:15:23;;;;;;;10.18;3.03;;;;;;;;;;4989251;28;20134;-76
2022/05/25 12:18:02;;;;;;;8.32;2.75;;;;;;;;;;4993776;28;20073;-80
2022/05/25 12:20:47;;;;;;;12.50;3.45;;;;;;;;;;4993861;28;20105;-79
2022/05/25 12:23:22;;;;;;;15.05;3.15;;;;;;;;;;4982988;28;20093;-80
2022/05/25 12:25:52;;;;;;;;;;;;;;;;;;4975524;28;20149;-79
2022/05/25 12:28:23;;;;;;;17.98;3.95;;;;;;;;;;4958482;28;19929;-79
2022/05/25 12:30:58;;;;;;;13.70;3.50;;;;;;;;;;4965803;28;20042;-77
2022/05/25 12:33:26;;;;;;;15.45;3.30;;;;;;;;;;4992178;28;20481;-78
2022/05/25 12:35:55;;;;;;;8.68;2.72;;;;;;;;;;4976353;28;20058;-78
2022/05/25 12:38:25;;;;;;;7.95;3.45;;;;;;;;;;4992850;28;20068;-79
2022/05/25 12:40:55;;;;;;;11.82;4.32;;;;;;;;;;4976833;28;20058;-78
2022/05/25 12:43:40;;;;;;;6.80;3.38;;;;;;;;;;4992992;28;20085;-78
2022/05/25 12:49:04;;;;;;;9.57;3.53;;;;;;;;;;4991067;28;20065;-78
2022/05/25 12:51:44;;;;;;;11.35;3.97;;;;;;;;;;4991682;28;20054;-77
2022/05/25 12:54:22;;;;;;;8.05;3.20;;;;;;;;;;4991725;28;20042;-76
2022/05/25 12:56:53;;;;;;;10.07;3.65;;;;;;;;;;4976088;28;20069;-78
2022/05/25 12:59:39;;;;;;;7.68;3.40;;;;;;;;;;4991506;28;20050;-77
2022/05/25 13:02:21;;;;;;;6.55;3.10;;;;;;;;;;4994935;28;20519;-76
2022/05/25 13:04:55;;;;;;;8.70;2.92;;;;;;;;;;4996731;28;20038;-77
2022/05/25 13:07:47;;;;;;;9.02;3.40;;;;;;;;;;4996052;28;20097;-78
2022/05/25 13:10:30;;;;;;;13.10;3.45;;;;;;;;;;4996544;28;20058;-75
2022/05/25 13:13:42;;;;;;;8.85;3.70;;;;;;;;;;4995850;28;20121;-76
2022/05/25 13:16:39;;;;;;;6.63;2.92;;;;;;;;;;4996937;28;20060;-75
2022/05/25 13:19:32;;;;;;;10.10;3.55;;;;;;;;;;4996603;28;20122;-75
2022/05/25 13:22:05;;;;;;;7.53;3.38;;;;;;;;;;4988895;28;20141;-78
2022/05/25 13:25:02;;;;;;;9.00;3.85;;;;;;;;;;4977776;28;20086;-77
2022/05/25 13:28:02;;;;;;;9.93;3.83;;;;;;;;;;4990640;28;20517;-77
2022/05/25 13:30:39;;;;;;;10.52;3.20;;;;;;;;;;4996493;28;20093;-78
2022/05/25 13:33:20;;;;;;;10.25;3.85;;;;;;;;;;4995212;28;20056;-77
2022/05/25 13:36:03;;;;;;;8.38;3.97;;;;;;;;;;4995647;28;20057;-78
2022/05/25 13:38:49;;;;;;;12.13;3.30;;;;;;;;;;4996803;28;20046;-78
2022/05/25 13:41:24;;;;;;;9.85;2.90;;;;;;;;;;4996952;28;20141;-78
2022/05/25 13:43:59;;;;;;;6.97;3.75;;;;;;;;;;4997448;28;20061;-78
2022/05/25 13:46:46;;;;;;;7.10;3.72;;;;;;;;;;4996705;28;20557;-78
2022/05/25 13:49:18;;;;;;;9.70;3.35;;;;;;;;;;4994552;28;20497;-77
2022/05/25 13:51:49;;;;;;;9.05;3.30;;;;;;;;;;4994441;28;20090;-78
2022/05/25 13:54:37;;;;;;;9.23;3.85;;;;;;;;;;4995009;28;20129;-78
2022/05/25 13:58:00;;;;;;;8.13;2.95;;;;;;;;;;4994528;28;20051;-78
2022/05/25 14:00:28;;;;;;;8.40;3.50;;;;;;;;;;4958683;28;20727;-78
2022/05/25 14:03:00;;;;;;;17.75;4.50;;;;;;;;;;4993991;28;20046;-78
2022/05/25 14:05:44;;;;;;;10.60;3.75;;;;;;;;;;4996598;28;20042;-78
2022/05/25 14:11:36;;;;;;;6.13;3.60;;;;;;;;;;4996457;28;20046;-77
2022/05/25 14:14:29;;;;;;;9.82;4.10;;;;;;;;;;4996109;28;20054;-77
2022/05/25 14:17:22;;;;;;;14.02;4.53;;;;;;;;;;4996824;28;20601;-78
2022/05/25 14:19:54;;;;;;;8.82;3.58;;;;;;;;;;4994191;28;20077;-77
2022/05/25 14:22:26;;;;;;;15.90;4.32;;;;;;;;;;4996124;28;20061;-78
2022/05/25 14:24:56;;;;;;;;;;;;;;;;;;4996305;28;20085;-77
2022/05/25 14:27:39;;;;;;;12.50;4.22;;;;;;;;;;4996095;28;20407;-78
2022/05/25 14:30:14;;;;;;;10.82;3.33;;;;;;;;;;4995572;28;20080;-78
2022/05/25 14:33:17;;;;;;;5.07;2.85;;;;;;;;;;4996055;28;20571;-78
2022/05/25 14:35:48;;;;;;;;;;;;;;;;;;4979199;28;20057;-76
2022/05/25 14:38:18;;;;;;;10.73;3.53;;;;;;;;;;4995322;28;19921;-78
2022/05/25 14:41:29;;;;;;;11.70;3.45;;;;;;;;;;4995541;28;20491;-77
2022/05/25 14:43:58;;;;;;;10.13;3.95;;;;;;;;;;4995262;28;20509;-76
2022/05/25 14:46:29;;;;;;;9.07;3.08;;;;;;;;;;4995255;28;20046;-78
2022/05/25 14:49:03;;;;;;;8.77;3.63;;;;;;;;;;4978445;28;20049;-75
2022/05/25 14:51:43;;;;;;;9.63;2.93;;;;;;;;;;4994147;28;20484;-76
2022/05/25 14:54:20;;;;;;;18.05;4.93;;;;;;;;;;4978015;28;20042;-76
2022/05/25 14:56:51;;;;;;;11.68;3.85;;;;;;;;;;4978923;28;20061;-77
2022/05/25 14:59:31;;;;;;;10.75;4.40;;;;;;;;;;4994519;28;20394;-74
2022/05/25 15:02:01;;;;;;;13.85;4.32;;;;;;;;;;4995318;28;20414;-76
2022/05/25 15:04:33;;;;;;;7.63;3.42;;;;;;;;;;4994763;28;20054;-76
2022/05/25 15:07:02;;;;;;;10.77;3.42;;;;;;;;;;4995042;28;20065;-77
2022/05/25 15:09:37;;;;;;;7.03;3.17;;;;;;;;;;4994962;28;20062;-77
2022/05/25 15:12:17;;;;;;;7.18;3.28;;;;;;;;;;4990927;28;20184;-76
2022/05/25 15:18:29;;;;;;;11.00;4.05;;;;;;;;;;4993086;28;20057;-77
2022/05/25 15:21:22;;;;;;;5.70;3.60;;;;;;;;;;4992681;28;20460;-77
2022/05/25 15:24:14;;;;;;;7.88;3.13;;;;;;;;;;4993924;28;20053;-77
2022/05/25 15:27:07;;;;;;;9.30;4.20;;;;;;;;;;4993050;28;20074;-77
2022/05/25 15:29:53;;;;;;;9.70;3.85;;;;;;;;;;4986352;28;20054;-75
2022/05/25 15:32:23;;;;;;;6.80;3.83;;;;;;;;;;4990504;28;20475;-76
2022/05/25 15:34:52;;;;;;;7.65;3.03;;;;;;;;;;4992473;28;20050;-73
2022/05/25 15:37:27;;;;;;;5.68;3.30;;;;;;;;;;4992583;28;20050;-77
2022/05/25 15:39:57;;;;;;;9.52;3.60;;;;;;;;;;4992285;28;20367;-73
2022/05/25 15:42:47;;;;;;;6.00;3.42;;;;;;;;;;4977508;28;20097;-73
2022/05/25 15:45:25;;;;;;;6.32;3.50;;;;;;;;;;4975202;28;20081;-73
2022/05/25 15:47:54;;;;;;;9.27;3.78;;;;;;;;;;4992527;28;20078;-73
2022/05/25 15:50:23;;;;;;;11.80;4.05;;;;;;;;;;4992118;28;20053;-72
2022/05/25 15:52:53;;;;;;;4.68;3.10;;;;;;;;;;4992522;28;20050;-74
2022/05/25 15:55:23;;;;;;;5.95;3.08;;;;;;;;;;4992298;28;20100;-72
2022/05/25 15:57:53;;;;;;;6.57;3.03;;;;;;;;;;4992120;28;20133;-73
2022/05/25 16:00:22;;;;;;;16.50;4.68;;;;;;;;;;4991663;28;20137;-75
2022/05/25 16:02:52;;;;;;;11.68;4.07;;;;;;;;;;4991417;28;20069;-70
2022/05/25 16:05:23;;;;;;;11.10;3.15;;;;;;;;;;4972591;28;20055;-70
2022/05/25 16:10:38;;;;;;;14.57;3.33;;;;;;;;;;4958086;28;20074;-71
2022/05/25 16:13:09;;;;;;;5.13;3.15;;;;;;;;;;4972865;28;20054;-70
2022/05/25 16:15:38;;;;;;;4.93;2.63;;;;;;;;;;4990519;28;20050;-71